Time;durP1;ratioP1;P1;durP2;ratioP2;P2;SDS_P1;SDS_P2;PMS_P1;PMS_P2;Temp;Humidity;BMP_temperature;BMP_pressure;BME280_temperature;BME280_humidity;BME280_pressure;Samples;Min_cycle;Max_cycle;Signal;HPM_P1;HPM_P2
2023/04/10 00:00:57;;;;;;;20.88;19.73;;;;;;;;;;5055005;28;20484;-61
2023/04/10 00:03:23;;;;;;;21.17;19.98;;;;;;;;;;5055426;28;20070;-60
2023/04/10 00:05:48;;;;;;;20.08;18.98;;;;;;;;;;5055110;28;20032;-60
2023/04/10 00:08:14;;;;;;;20.70;19.48;;;;;;;;;;5048335;28;20449;-60
2023/04/10 00:10:39;;;;;;;20.52;19.42;;;;;;;;;;5046235;28;20040;-61
2023/04/10 00:13:05;;;;;;;20.92;19.63;;;;;;;;;;5053976;28;20391;-60
2023/04/10 00:15:30;;;;;;;19.55;18.45;;;;;;;;;;5061696;28;20480;-60
2023/04/10 00:17:56;;;;;;;19.50;18.40;;;;;;;;;;5054879;28;20062;-60
2023/04/10 00:20:21;;;;;;;21.30;20.00;;;;;;;;;;5055134;28;20021;-59
2023/04/10 00:22:47;;;;;;;21.77;20.48;;;;;;;;;;5050313;28;20488;-60
2023/04/10 00:25:12;;;;;;;22.00;20.73;;;;;;;;;;5054860;28;20021;-61
2023/04/10 00:27:38;;;;;;;22.83;21.52;;;;;;;;;;5054598;28;20048;-59
2023/04/10 00:30:03;;;;;;;23.83;22.30;;;;;;;;;;5053537;28;20100;-60
2023/04/10 00:32:28;;;;;;;23.45;22.00;;;;;;;;;;5054646;28;20020;-60
2023/04/10 00:34:54;;;;;;;22.00;20.80;;;;;;;;;;5054772;28;20021;-60
2023/04/10 00:37:20;;;;;;;22.40;21.00;;;;;;;;;;5054480;28;20075;-59
2023/04/10 00:39:45;;;;;;;21.05;19.77;;;;;;;;;;5055627;28;20025;-60
2023/04/10 00:42:10;;;;;;;20.63;19.42;;;;;;;;;;5054756;28;20087;-60
2023/04/10 00:44:36;;;;;;;21.95;20.65;;;;;;;;;;5056990;28;20036;-60
2023/04/10 00:47:05;;;;;;;23.20;21.80;;;;;;;;;;5055262;28;20060;-60
2023/04/10 00:49:30;;;;;;;21.20;20.00;;;;;;;;;;5056189;28;20112;-60
2023/04/10 00:51:56;;;;;;;21.70;20.40;;;;;;;;;;5044589;28;20060;-61
2023/04/10 00:54:21;;;;;;;20.92;19.83;;;;;;;;;;5056226;28;20040;-60
2023/04/10 00:56:47;;;;;;;22.85;21.55;;;;;;;;;;5055928;28;20392;-59
2023/04/10 00:59:13;;;;;;;23.15;21.75;;;;;;;;;;5054529;28;20496;-60
2023/04/10 01:01:38;;;;;;;22.42;21.13;;;;;;;;;;5056444;28;20013;-60
2023/04/10 01:04:04;;;;;;;21.60;20.48;;;;;;;;;;5052953;28;20025;-60
2023/04/10 01:06:35;;;;;;;21.85;20.55;;;;;;;;;;5054353;28;20041;-60
2023/04/10 01:09:09;;;;;;;22.10;20.70;;;;;;;;;;5053786;28;20021;-60
2023/04/10 01:11:43;;;;;;;21.08;19.92;;;;;;;;;;5054562;28;20025;-60
2023/04/10 01:14:26;;;;;;;20.10;19.00;;;;;;;;;;5060038;28;20012;-60
2023/04/10 01:17:10;;;;;;;21.17;19.88;;;;;;;;;;5055624;28;20075;-60
2023/04/10 01:19:41;;;;;;;20.03;18.83;;;;;;;;;;5054253;28;20568;-60
2023/04/10 01:22:10;;;;;;;20.02;18.85;;;;;;;;;;5052822;28;20503;-60
2023/04/10 01:24:35;;;;;;;20.05;18.85;;;;;;;;;;5050249;28;20022;-60
2023/04/10 01:27:36;;;;;;;20.30;19.10;;;;;;;;;;5044329;28;20013;-60
2023/04/10 01:30:02;;;;;;;20.05;18.95;;;;;;;;;;5031505;28;20033;-60
2023/04/10 01:32:29;;;;;;;20.45;19.25;;;;;;;;;;5049169;28;20116;-59
2023/04/10 01:34:55;;;;;;;20.17;19.02;;;;;;;;;;5053822;28;20024;-59
2023/04/10 01:37:23;;;;;;;19.42;18.40;;;;;;;;;;5052727;28;20017;-60
2023/04/10 01:39:50;;;;;;;20.00;18.80;;;;;;;;;;5052739;28;20035;-61
2023/04/10 01:42:16;;;;;;;19.85;18.75;;;;;;;;;;5053414;28;20019;-60
2023/04/10 01:44:43;;;;;;;20.33;19.13;;;;;;;;;;5053693;28;20392;-61
2023/04/10 01:47:08;;;;;;;19.75;18.65;;;;;;;;;;5053479;28;20058;-59
2023/04/10 01:49:36;;;;;;;21.45;20.15;;;;;;;;;;5053169;28;20103;-61
2023/04/10 01:52:04;;;;;;;19.90;18.77;;;;;;;;;;5053571;28;20444;-60
2023/04/10 01:54:31;;;;;;;20.17;19.02;;;;;;;;;;5053484;28;20032;-60
2023/04/10 01:56:58;;;;;;;20.00;18.80;;;;;;;;;;5052202;28;20039;-60
2023/04/10 01:59:23;;;;;;;19.38;18.30;;;;;;;;;;5052770;28;20045;-60
2023/04/10 02:01:54;;;;;;;19.33;18.23;;;;;;;;;;5051073;28;20031;-59
2023/04/10 02:04:19;;;;;;;18.70;17.70;;;;;;;;;;5053743;28;20047;-60
2023/04/10 02:07:10;;;;;;;18.73;17.75;;;;;;;;;;5053195;28;20539;-59
2023/04/10 02:09:39;;;;;;;19.40;18.30;;;;;;;;;;5055210;28;20103;-59
2023/04/10 02:12:05;;;;;;;19.80;18.60;;;;;;;;;;5053566;28;20025;-60
2023/04/10 02:14:31;;;;;;;19.35;18.25;;;;;;;;;;5061586;28;20027;-60
2023/04/10 02:16:57;;;;;;;18.90;17.88;;;;;;;;;;5053837;28;20025;-60
2023/04/10 02:19:24;;;;;;;18.73;17.73;;;;;;;;;;5051334;28;20111;-59
2023/04/10 02:21:50;;;;;;;18.83;17.83;;;;;;;;;;5052521;28;20579;-60
2023/04/10 02:24:15;;;;;;;19.08;18.08;;;;;;;;;;5051913;28;20025;-61
2023/04/10 02:26:47;;;;;;;18.67;17.70;;;;;;;;;;5039735;28;20017;-59
2023/04/10 02:29:13;;;;;;;19.17;18.15;;;;;;;;;;5048823;28;20025;-61
2023/04/10 02:31:39;;;;;;;19.83;18.73;;;;;;;;;;5044289;28;20021;-61
2023/04/10 02:34:06;;;;;;;20.42;19.33;;;;;;;;;;5052282;28;20090;-60
2023/04/10 02:36:31;;;;;;;19.77;18.70;;;;;;;;;;5051345;28;20063;-60
2023/04/10 02:38:57;;;;;;;19.50;18.40;;;;;;;;;;5051849;28;20029;-60
2023/04/10 02:41:23;;;;;;;20.65;19.35;;;;;;;;;;5052483;28;20024;-60
2023/04/10 02:43:48;;;;;;;21.98;20.58;;;;;;;;;;5052019;28;20021;-61
2023/04/10 02:46:14;;;;;;;21.42;20.20;;;;;;;;;;5051607;28;20028;-59
2023/04/10 02:48:39;;;;;;;23.30;21.80;;;;;;;;;;5052254;28;20029;-60
2023/04/10 02:51:05;;;;;;;22.15;20.85;;;;;;;;;;5052057;28;20395;-59
2023/04/10 02:53:31;;;;;;;23.80;22.40;;;;;;;;;;5052246;28;20369;-59
2023/04/10 02:55:57;;;;;;;24.45;22.85;;;;;;;;;;5051200;28;20070;-59
2023/04/10 02:58:22;;;;;;;22.90;21.70;;;;;;;;;;5047106;28;20126;-62
2023/04/10 03:00:49;;;;;;;23.10;21.80;;;;;;;;;;5051239;28;20025;-60
2023/04/10 03:03:15;;;;;;;23.88;22.42;;;;;;;;;;5050905;28;20036;-59
2023/04/10 03:05:40;;;;;;;20.60;19.40;;;;;;;;;;5046527;28;20014;-59
2023/04/10 03:08:05;;;;;;;20.80;19.60;;;;;;;;;;5045974;28;20021;-59
2023/04/10 03:10:31;;;;;;;20.92;19.67;;;;;;;;;;5051830;28;20104;-61
2023/04/10 03:12:56;;;;;;;21.10;19.80;;;;;;;;;;5051516;28;20021;-60
2023/04/10 03:15:21;;;;;;;20.83;19.63;;;;;;;;;;5051607;28;20027;-60
2023/04/10 03:17:47;;;;;;;22.30;20.98;;;;;;;;;;5050894;28;20471;-59
2023/04/10 03:20:12;;;;;;;23.35;21.92;;;;;;;;;;5047009;28;20021;-60
2023/04/10 03:22:38;;;;;;;24.42;23.02;;;;;;;;;;5051242;28;20024;-60
2023/04/10 03:25:04;;;;;;;24.50;23.10;;;;;;;;;;5049649;28;20017;-60
2023/04/10 03:27:31;;;;;;;24.55;23.15;;;;;;;;;;5051671;28;20504;-61
2023/04/10 03:29:56;;;;;;;23.50;22.20;;;;;;;;;;5051134;28;20071;-61
2023/04/10 03:32:21;;;;;;;23.38;21.98;;;;;;;;;;5051588;28;20040;-60
2023/04/10 03:34:47;;;;;;;22.40;21.20;;;;;;;;;;5049727;28;20431;-60
2023/04/10 03:37:12;;;;;;;22.90;21.42;;;;;;;;;;5050784;28;20029;-60
2023/04/10 03:39:38;;;;;;;22.95;21.55;;;;;;;;;;5051309;28;20476;-60
2023/04/10 03:42:03;;;;;;;23.60;22.08;;;;;;;;;;5051236;28;20021;-59
2023/04/10 03:44:28;;;;;;;22.63;21.33;;;;;;;;;;5051293;28;20029;-60
2023/04/10 03:46:54;;;;;;;22.33;21.02;;;;;;;;;;5051158;28;20108;-59
2023/04/10 03:49:19;;;;;;;19.60;18.50;;;;;;;;;;5051120;28;20118;-61
2023/04/10 03:51:45;;;;;;;20.30;19.02;;;;;;;;;;5051353;28;20033;-60
2023/04/10 03:54:10;;;;;;;20.17;18.98;;;;;;;;;;5047904;28;20070;-60
2023/04/10 03:56:35;;;;;;;19.60;18.40;;;;;;;;;;5051104;28;20029;-60
2023/04/10 03:59:00;;;;;;;19.00;17.83;;;;;;;;;;5050579;28;20049;-60
2023/04/10 04:01:26;;;;;;;20.75;19.15;;;;;;;;;;5049806;28;20049;-61
2023/04/10 04:03:51;;;;;;;18.30;17.17;;;;;;;;;;5044286;28;20009;-59
2023/04/10 04:06:16;;;;;;;17.15;16.17;;;;;;;;;;5047256;28;20384;-61
2023/04/10 04:08:42;;;;;;;17.58;16.50;;;;;;;;;;5051019;28;20052;-61
2023/04/10 04:11:07;;;;;;;17.27;16.23;;;;;;;;;;5049999;28;20026;-59
2023/04/10 04:13:32;;;;;;;16.88;15.95;;;;;;;;;;5051006;28;20021;-61
2023/04/10 04:15:58;;;;;;;16.73;15.70;;;;;;;;;;5050561;28;20028;-60
2023/04/10 04:18:23;;;;;;;17.48;16.40;;;;;;;;;;5050948;28;20064;-60
2023/04/10 04:20:48;;;;;;;16.92;15.93;;;;;;;;;;5050839;28;20524;-60
2023/04/10 04:23:14;;;;;;;16.20;15.30;;;;;;;;;;5036340;28;20044;-61
2023/04/10 04:25:39;;;;;;;16.05;15.15;;;;;;;;;;5047808;28;20012;-60
2023/04/10 04:28:05;;;;;;;16.60;15.60;;;;;;;;;;5049687;28;20499;-60
2023/04/10 04:30:30;;;;;;;16.40;15.50;;;;;;;;;;5051224;28;20025;-60
2023/04/10 04:32:55;;;;;;;16.00;15.13;;;;;;;;;;5054439;28;20488;-60
2023/04/10 04:35:21;;;;;;;16.80;15.80;;;;;;;;;;5054418;28;20111;-62
2023/04/10 04:37:46;;;;;;;16.80;15.90;;;;;;;;;;5054275;28;20021;-61
2023/04/10 04:40:11;;;;;;;16.50;15.60;;;;;;;;;;5054332;28;20057;-61
2023/04/10 04:42:37;;;;;;;15.77;14.98;;;;;;;;;;5054567;28;20100;-61
2023/04/10 04:45:02;;;;;;;15.77;14.98;;;;;;;;;;5041976;28;20017;-60
2023/04/10 04:47:27;;;;;;;16.13;15.32;;;;;;;;;;5054164;28;20032;-61
2023/04/10 04:49:53;;;;;;;15.93;15.13;;;;;;;;;;5041764;28;20017;-61
2023/04/10 04:52:18;;;;;;;15.90;15.10;;;;;;;;;;5053260;28;20025;-61
2023/04/10 04:54:43;;;;;;;15.65;14.85;;;;;;;;;;5054756;28;20018;-61
2023/04/10 04:57:09;;;;;;;17.33;16.40;;;;;;;;;;5054454;28;20118;-61
2023/04/10 04:59:34;;;;;;;17.23;16.33;;;;;;;;;;5048474;28;20089;-62
2023/04/10 05:01:59;;;;;;;16.33;15.43;;;;;;;;;;5053097;28;20071;-61
2023/04/10 05:04:25;;;;;;;17.92;16.92;;;;;;;;;;5053706;28;20073;-61
2023/04/10 05:06:50;;;;;;;17.67;16.67;;;;;;;;;;5053710;28;20036;-60
2023/04/10 05:09:15;;;;;;;16.70;15.80;;;;;;;;;;5053704;28;20480;-61
2023/04/10 05:11:41;;;;;;;16.70;15.80;;;;;;;;;;5053353;28;20009;-60
2023/04/10 05:14:06;;;;;;;14.82;14.13;;;;;;;;;;5042659;28;20009;-60
2023/04/10 05:16:31;;;;;;;15.98;15.18;;;;;;;;;;5053727;28;20017;-61
2023/04/10 05:18:57;;;;;;;15.88;15.07;;;;;;;;;;5052738;28;20013;-61
2023/04/10 05:21:22;;;;;;;15.75;14.95;;;;;;;;;;5046707;28;20026;-60
2023/04/10 05:23:47;;;;;;;16.08;15.27;;;;;;;;;;5034938;28;20441;-62
2023/04/10 05:26:13;;;;;;;16.00;15.20;;;;;;;;;;5051407;28;20100;-60
2023/04/10 05:28:38;;;;;;;15.75;14.95;;;;;;;;;;5053806;28;20028;-61
2023/04/10 05:31:03;;;;;;;15.50;14.80;;;;;;;;;;5053797;28;20503;-60
2023/04/10 05:33:29;;;;;;;15.40;14.70;;;;;;;;;;5053620;28;20400;-61
2023/04/10 05:35:55;;;;;;;15.70;14.90;;;;;;;;;;5051327;28;20032;-58
2023/04/10 05:38:20;;;;;;;16.20;15.40;;;;;;;;;;5052046;28;20028;-59
2023/04/10 05:40:46;;;;;;;14.90;14.20;;;;;;;;;;5052267;28;20029;-59
2023/04/10 05:43:12;;;;;;;15.18;14.48;;;;;;;;;;5045773;28;20028;-60
2023/04/10 05:45:37;;;;;;;15.52;14.73;;;;;;;;;;5048068;28;20096;-60
2023/04/10 05:48:03;;;;;;;14.80;14.10;;;;;;;;;;5052943;28;20171;-60
2023/04/10 05:50:28;;;;;;;14.77;14.07;;;;;;;;;;5053082;28;20024;-60
2023/04/10 05:52:53;;;;;;;15.25;14.52;;;;;;;;;;5052140;28;20020;-60
2023/04/10 05:55:19;;;;;;;14.93;14.20;;;;;;;;;;5050039;28;20029;-59
2023/04/10 05:57:44;;;;;;;15.75;14.95;;;;;;;;;;5052864;28;20056;-60
2023/04/10 06:00:10;;;;;;;15.00;14.30;;;;;;;;;;5052433;28;20044;-60
2023/04/10 06:02:35;;;;;;;14.43;13.73;;;;;;;;;;5052628;28;20013;-60
2023/04/10 06:05:00;;;;;;;14.10;13.45;;;;;;;;;;5053078;28;20025;-60
2023/04/10 06:07:26;;;;;;;14.60;13.90;;;;;;;;;;5052827;28;20048;-61
2023/04/10 06:09:51;;;;;;;14.65;13.95;;;;;;;;;;5052188;28;20437;-61
2023/04/10 06:12:17;;;;;;;14.85;14.15;;;;;;;;;;5051850;28;20066;-62
2023/04/10 06:14:42;;;;;;;14.40;13.70;;;;;;;;;;5057827;28;20024;-61
2023/04/10 06:17:07;;;;;;;14.60;13.90;;;;;;;;;;5052642;28;20396;-60
2023/04/10 06:19:33;;;;;;;14.48;13.77;;;;;;;;;;5049728;28;20511;-60
2023/04/10 06:21:58;;;;;;;15.00;14.30;;;;;;;;;;5032897;28;20020;-61
2023/04/10 06:24:23;;;;;;;14.23;13.52;;;;;;;;;;5052104;28;20533;-60
2023/04/10 06:26:49;;;;;;;15.10;14.40;;;;;;;;;;5052214;28;20029;-60
2023/04/10 06:29:14;;;;;;;14.10;13.40;;;;;;;;;;5051202;28;20246;-60
2023/04/10 06:31:39;;;;;;;13.38;12.77;;;;;;;;;;5052260;28;20016;-61
2023/04/10 06:34:05;;;;;;;13.68;13.07;;;;;;;;;;5052217;28;20140;-60
2023/04/10 06:36:30;;;;;;;13.52;12.93;;;;;;;;;;5050941;28;20031;-60
2023/04/10 06:38:56;;;;;;;14.00;13.30;;;;;;;;;;5051794;28;20024;-60
2023/04/10 06:41:21;;;;;;;13.75;13.15;;;;;;;;;;5047873;28;20049;-61
2023/04/10 06:43:46;;;;;;;14.60;13.90;;;;;;;;;;5049375;28;20013;-61
2023/04/10 06:46:11;;;;;;;13.75;13.13;;;;;;;;;;5048536;28;20031;-60
2023/04/10 06:48:37;;;;;;;14.10;13.40;;;;;;;;;;5052065;28;20040;-61
2023/04/10 06:51:02;;;;;;;13.80;13.20;;;;;;;;;;5043761;28;20385;-60
2023/04/10 06:53:28;;;;;;;13.57;12.98;;;;;;;;;;5047238;28;20025;-59
2023/04/10 06:55:53;;;;;;;14.02;13.35;;;;;;;;;;5051979;28;20028;-60
2023/04/10 06:58:19;;;;;;;13.77;13.18;;;;;;;;;;5051402;28;20069;-60
2023/04/10 07:00:45;;;;;;;13.40;12.80;;;;;;;;;;5051528;28;20024;-60
2023/04/10 07:03:10;;;;;;;13.52;12.93;;;;;;;;;;5048186;28;20025;-60
2023/04/10 07:05:35;;;;;;;13.60;13.00;;;;;;;;;;5047186;28;20036;-60
2023/04/10 07:08:01;;;;;;;13.95;13.25;;;;;;;;;;5051619;28;20578;-59
2023/04/10 07:10:26;;;;;;;13.90;13.20;;;;;;;;;;5051474;28;20021;-60
2023/04/10 07:12:51;;;;;;;15.10;14.30;;;;;;;;;;5051687;28;20260;-60
2023/04/10 07:15:17;;;;;;;14.40;13.70;;;;;;;;;;5051343;28;20373;-60
2023/04/10 07:17:42;;;;;;;13.48;12.88;;;;;;;;;;5051474;28;20024;-61
2023/04/10 07:20:08;;;;;;;14.35;13.65;;;;;;;;;;5049565;28;20032;-60
2023/04/10 07:22:33;;;;;;;14.10;13.40;;;;;;;;;;5050677;28;20443;-60
2023/04/10 07:24:59;;;;;;;14.15;13.45;;;;;;;;;;5051382;28;20438;-60
2023/04/10 07:27:24;;;;;;;13.50;12.90;;;;;;;;;;5050959;28;20448;-60
2023/04/10 07:29:52;;;;;;;14.57;13.88;;;;;;;;;;5050700;28;20032;-60
2023/04/10 07:32:18;;;;;;;13.88;13.25;;;;;;;;;;5050713;28;20048;-60
2023/04/10 07:34:43;;;;;;;14.00;13.30;;;;;;;;;;5048755;28;20048;-59
2023/04/10 07:37:09;;;;;;;14.30;13.60;;;;;;;;;;5050592;28;20075;-60
2023/04/10 07:39:34;;;;;;;13.52;12.93;;;;;;;;;;5048271;28;20060;-60
2023/04/10 07:42:00;;;;;;;13.82;13.13;;;;;;;;;;5051014;28;20043;-60
2023/04/10 07:44:25;;;;;;;13.90;13.20;;;;;;;;;;5051066;28;20079;-60
2023/04/10 07:46:51;;;;;;;13.40;12.80;;;;;;;;;;5046915;28;20029;-60
2023/04/10 07:49:16;;;;;;;13.38;12.77;;;;;;;;;;5046519;28;20021;-61
2023/04/10 07:51:41;;;;;;;12.85;12.25;;;;;;;;;;5051221;28;20021;-59
2023/04/10 07:54:07;;;;;;;13.30;12.70;;;;;;;;;;5050303;28;20028;-61
2023/04/10 07:56:32;;;;;;;13.20;12.60;;;;;;;;;;5050951;28;20097;-60
2023/04/10 07:58:58;;;;;;;14.05;13.35;;;;;;;;;;5050932;28;20037;-59
2023/04/10 08:01:23;;;;;;;13.50;12.90;;;;;;;;;;5051021;28;20035;-60
2023/04/10 08:03:49;;;;;;;13.57;12.98;;;;;;;;;;5050736;28;20025;-59
2023/04/10 08:06:14;;;;;;;14.00;13.30;;;;;;;;;;5054992;28;20016;-61
2023/04/10 08:08:40;;;;;;;13.20;12.60;;;;;;;;;;5054828;28;20079;-60
2023/04/10 08:11:29;;;;;;;13.15;12.55;;;;;;;;;;5044942;28;20040;-60
2023/04/10 08:13:55;;;;;;;13.32;12.73;;;;;;;;;;5056773;28;20020;-61
2023/04/10 08:16:24;;;;;;;14.35;13.65;;;;;;;;;;5056815;28;20028;-61
2023/04/10 08:18:50;;;;;;;14.10;13.40;;;;;;;;;;5047427;28;20025;-61
2023/04/10 08:21:15;;;;;;;13.43;12.82;;;;;;;;;;5054495;28;20412;-61
2023/04/10 08:23:40;;;;;;;14.43;13.73;;;;;;;;;;5054435;28;20032;-61
2023/04/10 08:26:06;;;;;;;15.52;14.73;;;;;;;;;;5053526;28;20025;-60
2023/04/10 08:28:31;;;;;;;15.38;14.57;;;;;;;;;;5054509;28;20422;-60
2023/04/10 08:30:56;;;;;;;14.65;13.95;;;;;;;;;;5054415;28;20513;-61
2023/04/10 08:33:22;;;;;;;14.27;13.57;;;;;;;;;;5054335;28;20151;-60
2023/04/10 08:35:50;;;;;;;14.70;14.00;;;;;;;;;;5041535;28;20021;-60
2023/04/10 08:38:15;;;;;;;14.30;13.60;;;;;;;;;;5054320;28;20021;-61
2023/04/10 08:40:41;;;;;;;14.40;13.70;;;;;;;;;;5054529;28;20047;-61
2023/04/10 08:43:06;;;;;;;14.85;14.05;;;;;;;;;;5053079;28;20036;-61
2023/04/10 08:45:32;;;;;;;15.68;14.80;;;;;;;;;;5054101;28;20055;-61
2023/04/10 08:47:59;;;;;;;15.23;14.43;;;;;;;;;;5054248;28;20017;-60
2023/04/10 08:50:24;;;;;;;15.00;14.20;;;;;;;;;;5053917;28;20025;-60
2023/04/10 08:52:51;;;;;;;15.00;14.20;;;;;;;;;;5054218;28;20029;-60
2023/04/10 08:55:17;;;;;;;14.43;13.73;;;;;;;;;;5054136;28;20039;-60
2023/04/10 08:57:42;;;;;;;13.90;13.20;;;;;;;;;;5054003;28;20082;-60
2023/04/10 09:00:08;;;;;;;13.95;13.25;;;;;;;;;;5053133;28;20088;-60
2023/04/10 09:02:36;;;;;;;14.07;13.38;;;;;;;;;;5054464;28;20063;-60
2023/04/10 09:05:02;;;;;;;14.60;13.80;;;;;;;;;;5053899;28;20112;-63
2023/04/10 09:07:28;;;;;;;13.95;13.25;;;;;;;;;;5053940;28;20021;-60
2023/04/10 09:09:53;;;;;;;14.85;14.05;;;;;;;;;;5053943;28;20021;-60
2023/04/10 09:12:18;;;;;;;14.60;13.80;;;;;;;;;;5053566;28;20100;-60
2023/04/10 09:14:45;;;;;;;14.18;13.48;;;;;;;;;;5053493;28;20082;-60
2023/04/10 09:17:15;;;;;;;15.00;14.20;;;;;;;;;;5051731;28;20398;-61
2023/04/10 09:19:41;;;;;;;14.23;13.52;;;;;;;;;;5053204;28;20155;-61
2023/04/10 09:22:06;;;;;;;16.15;15.25;;;;;;;;;;5053118;28;20063;-59
2023/04/10 09:24:35;;;;;;;15.18;14.38;;;;;;;;;;5053293;28;20021;-61
2023/04/10 09:27:01;;;;;;;15.10;14.30;;;;;;;;;;5053673;28;20025;-61
2023/04/10 09:29:26;;;;;;;15.82;14.93;;;;;;;;;;5053274;28;20029;-60
2023/04/10 09:31:51;;;;;;;15.73;14.82;;;;;;;;;;5041573;28;20005;-60
2023/04/10 09:34:18;;;;;;;14.02;13.32;;;;;;;;;;5052759;28;20025;-60
2023/04/10 09:37:03;;;;;;;14.85;14.05;;;;;;;;;;5053047;28;20009;-61
2023/04/10 09:39:33;;;;;;;14.35;13.65;;;;;;;;;;5052801;28;20090;-60
2023/04/10 09:41:58;;;;;;;14.68;13.88;;;;;;;;;;5053100;28;20027;-60
2023/04/10 09:44:32;;;;;;;14.43;13.73;;;;;;;;;;5053213;28;20383;-60
2023/04/10 09:47:12;;;;;;;14.68;13.88;;;;;;;;;;5053185;28;20016;-62
2023/04/10 09:49:44;;;;;;;14.90;14.10;;;;;;;;;;5052869;28;20056;-61
2023/04/10 09:52:20;;;;;;;15.63;14.73;;;;;;;;;;5052054;28;20013;-61
2023/04/10 09:54:45;;;;;;;15.30;14.50;;;;;;;;;;5052763;28;20067;-60
2023/04/10 09:57:13;;;;;;;15.00;14.20;;;;;;;;;;5052955;28;20056;-60
2023/04/10 09:59:39;;;;;;;15.18;14.38;;;;;;;;;;5052886;28;20048;-59
2023/04/10 10:02:05;;;;;;;15.45;14.60;;;;;;;;;;5050582;28;20031;-60
2023/04/10 10:04:30;;;;;;;13.90;13.20;;;;;;;;;;5053084;28;20100;-60
2023/04/10 10:06:56;;;;;;;14.60;13.85;;;;;;;;;;5052573;28;20059;-61
2023/04/10 10:09:21;;;;;;;15.85;14.95;;;;;;;;;;5051410;28;20090;-62
2023/04/10 10:11:48;;;;;;;15.40;14.60;;;;;;;;;;5052507;28;20021;-60
2023/04/10 10:14:17;;;;;;;15.27;14.48;;;;;;;;;;5052623;28;20016;-60
2023/04/10 10:16:45;;;;;;;14.35;13.65;;;;;;;;;;5052539;28;20476;-60
2023/04/10 10:19:19;;;;;;;13.70;13.10;;;;;;;;;;5041789;28;20026;-61
2023/04/10 10:21:44;;;;;;;14.40;13.70;;;;;;;;;;5051581;28;20024;-60
2023/04/10 10:24:11;;;;;;;14.93;14.13;;;;;;;;;;5052802;28;20104;-59
2023/04/10 10:26:39;;;;;;;15.00;14.20;;;;;;;;;;5049932;28;20487;-60
2023/04/10 10:29:09;;;;;;;14.85;14.05;;;;;;;;;;5051725;28;20017;-60
2023/04/10 10:31:36;;;;;;;14.68;13.93;;;;;;;;;;5051844;28;20021;-61
2023/04/10 10:34:04;;;;;;;15.07;14.25;;;;;;;;;;5052348;28;20052;-60
2023/04/10 10:36:30;;;;;;;14.15;13.45;;;;;;;;;;5052400;28;20021;-61
2023/04/10 10:39:13;;;;;;;14.70;13.90;;;;;;;;;;5051870;28;20476;-61
2023/04/10 10:41:47;;;;;;;14.55;13.75;;;;;;;;;;5038836;28;20392;-61
2023/04/10 10:44:22;;;;;;;14.18;13.48;;;;;;;;;;5047114;28;20027;-60
2023/04/10 10:46:48;;;;;;;15.75;14.85;;;;;;;;;;5051581;28;20029;-60
2023/04/10 10:49:14;;;;;;;14.90;14.10;;;;;;;;;;5051717;28;20436;-60
2023/04/10 10:51:43;;;;;;;14.25;13.55;;;;;;;;;;5051830;28;20036;-62
2023/04/10 10:54:27;;;;;;;14.75;13.95;;;;;;;;;;5046305;28;20020;-60
2023/04/10 10:56:52;;;;;;;14.45;13.75;;;;;;;;;;5051749;28;20021;-60
2023/04/10 10:59:38;;;;;;;14.82;14.02;;;;;;;;;;5050745;28;20051;-60
2023/04/10 11:02:16;;;;;;;14.45;13.65;;;;;;;;;;5049750;28;20067;-61
2023/04/10 11:04:45;;;;;;;14.13;13.43;;;;;;;;;;5048805;28;20029;-61
2023/04/10 11:07:11;;;;;;;15.38;14.48;;;;;;;;;;5051505;28;20025;-61
2023/04/10 11:09:49;;;;;;;14.00;13.30;;;;;;;;;;5051385;28;20043;-61
2023/04/10 11:12:16;;;;;;;14.73;13.93;;;;;;;;;;5051825;28;20357;-61
2023/04/10 11:14:42;;;;;;;15.05;14.18;;;;;;;;;;5051936;28;20040;-61
2023/04/10 11:17:08;;;;;;;15.63;14.73;;;;;;;;;;5047308;28;20116;-61
2023/04/10 11:20:12;;;;;;;16.10;15.10;;;;;;;;;;5045976;28;20495;-61
2023/04/10 11:22:55;;;;;;;14.10;13.40;;;;;;;;;;5028817;28;20076;-61
2023/04/10 11:25:21;;;;;;;15.18;14.38;;;;;;;;;;5028781;28;20412;-61
2023/04/10 11:27:51;;;;;;;15.10;14.30;;;;;;;;;;5041497;28;20036;-60
2023/04/10 11:30:30;;;;;;;15.02;14.23;;;;;;;;;;5050285;28;20029;-61
2023/04/10 11:32:55;;;;;;;15.57;14.68;;;;;;;;;;5038422;28;20055;-61
2023/04/10 11:35:21;;;;;;;15.55;14.65;;;;;;;;;;5051317;28;20392;-61
2023/04/10 11:37:46;;;;;;;16.00;15.07;;;;;;;;;;5050812;28;20021;-60
2023/04/10 11:40:11;;;;;;;14.32;13.63;;;;;;;;;;5053674;28;20100;-59
2023/04/10 11:42:37;;;;;;;15.10;14.30;;;;;;;;;;5055471;28;20052;-61
2023/04/10 11:45:21;;;;;;;14.80;14.00;;;;;;;;;;5055463;28;20362;-62
2023/04/10 11:47:50;;;;;;;15.20;14.40;;;;;;;;;;5055205;28;20158;-61
2023/04/10 11:50:17;;;;;;;15.95;15.05;;;;;;;;;;5054702;28;20044;-60
2023/04/10 11:52:42;;;;;;;14.80;14.00;;;;;;;;;;5055237;28;20025;-60
2023/04/10 11:55:08;;;;;;;14.10;13.40;;;;;;;;;;5055040;28;20020;-60
2023/04/10 11:57:33;;;;;;;14.48;13.68;;;;;;;;;;5052362;28;20018;-61
2023/04/10 11:59:59;;;;;;;14.82;14.02;;;;;;;;;;5054681;28;20052;-60
2023/04/10 12:02:24;;;;;;;14.93;14.10;;;;;;;;;;5052068;28;20480;-60
2023/04/10 12:04:56;;;;;;;15.90;14.90;;;;;;;;;;5054694;28;20037;-61
2023/04/10 12:07:22;;;;;;;14.68;13.88;;;;;;;;;;5054191;28;20100;-60
2023/04/10 12:09:54;;;;;;;14.60;13.80;;;;;;;;;;5054745;28;20024;-61
2023/04/10 12:12:33;;;;;;;14.50;13.77;;;;;;;;;;5054927;28;20111;-61
2023/04/10 12:14:58;;;;;;;15.43;14.52;;;;;;;;;;5057541;28;20013;-60
2023/04/10 12:17:24;;;;;;;14.68;13.88;;;;;;;;;;5054638;28;20496;-60
2023/04/10 12:19:49;;;;;;;15.32;14.43;;;;;;;;;;5051857;28;20033;-60
2023/04/10 12:22:14;;;;;;;14.57;13.80;;;;;;;;;;5054317;28;20029;-60
2023/04/10 12:24:43;;;;;;;14.70;13.90;;;;;;;;;;5054062;28;20040;-62
2023/04/10 12:27:18;;;;;;;15.60;14.70;;;;;;;;;;5054409;28;20029;-60
2023/04/10 12:29:44;;;;;;;15.63;14.73;;;;;;;;;;5053128;28;20647;-59
2023/04/10 12:32:09;;;;;;;14.85;14.05;;;;;;;;;;5046150;28;20021;-61
2023/04/10 12:34:38;;;;;;;14.80;14.00;;;;;;;;;;5054719;28;20491;-61
2023/04/10 12:37:03;;;;;;;15.90;14.95;;;;;;;;;;5054537;28;20070;-60
2023/04/10 12:39:28;;;;;;;14.50;13.70;;;;;;;;;;5054146;28;20017;-61
2023/04/10 12:42:09;;;;;;;15.27;14.38;;;;;;;;;;5053581;28;20025;-61
2023/04/10 12:44:35;;;;;;;15.23;14.35;;;;;;;;;;5054366;28;20027;-60
2023/04/10 12:47:00;;;;;;;15.68;14.75;;;;;;;;;;5054062;28;20491;-59
2023/04/10 12:49:26;;;;;;;14.45;13.70;;;;;;;;;;5054085;28;20025;-62
2023/04/10 12:51:51;;;;;;;14.10;13.40;;;;;;;;;;5053779;28;20021;-60
2023/04/10 12:54:30;;;;;;;14.68;13.88;;;;;;;;;;5054202;28;20052;-61
2023/04/10 12:56:56;;;;;;;14.80;14.00;;;;;;;;;;5054008;28;20017;-62
2023/04/10 12:59:22;;;;;;;14.57;13.77;;;;;;;;;;5053000;28;20614;-61
2023/04/10 13:01:47;;;;;;;14.85;14.05;;;;;;;;;;5053374;28;20032;-60
2023/04/10 13:04:12;;;;;;;14.80;14.00;;;;;;;;;;5053840;28;20078;-60
2023/04/10 13:06:42;;;;;;;13.82;13.13;;;;;;;;;;5053847;28;20020;-60
2023/04/10 13:09:07;;;;;;;15.25;14.45;;;;;;;;;;5053627;28;20103;-60
2023/04/10 13:11:33;;;;;;;14.82;14.02;;;;;;;;;;5053628;28;20100;-62
2023/04/10 13:13:58;;;;;;;16.23;15.23;;;;;;;;;;5054146;28;20020;-60
2023/04/10 13:16:23;;;;;;;14.63;13.82;;;;;;;;;;5051310;28;20025;-61
2023/04/10 13:18:48;;;;;;;15.52;14.63;;;;;;;;;;5053251;28;20024;-60
2023/04/10 13:21:18;;;;;;;15.30;14.45;;;;;;;;;;5043531;28;20596;-60
2023/04/10 13:23:44;;;;;;;15.35;14.45;;;;;;;;;;5052388;28;20029;-60
2023/04/10 13:26:09;;;;;;;15.57;14.68;;;;;;;;;;5053317;28;20027;-61
2023/04/10 13:28:34;;;;;;;16.10;15.10;;;;;;;;;;5053018;28;20079;-62
2023/04/10 13:31:00;;;;;;;14.68;13.88;;;;;;;;;;5050581;28;20025;-60
2023/04/10 13:33:25;;;;;;;16.23;15.23;;;;;;;;;;5052320;28;20021;-60
2023/04/10 13:35:50;;;;;;;15.20;14.35;;;;;;;;;;5038818;28;20020;-60
2023/04/10 13:38:16;;;;;;;14.20;13.50;;;;;;;;;;5052828;28;20088;-60
2023/04/10 13:40:41;;;;;;;15.10;14.27;;;;;;;;;;5053055;28;20108;-61
2023/04/10 13:43:06;;;;;;;15.02;14.20;;;;;;;;;;5053122;28;20021;-61
2023/04/10 13:45:33;;;;;;;15.40;14.50;;;;;;;;;;5052668;28;20040;-61
2023/04/10 13:47:59;;;;;;;14.82;14.02;;;;;;;;;;5052613;28;20053;-61
2023/04/10 13:50:24;;;;;;;17.33;16.23;;;;;;;;;;5048644;28;20459;-61
2023/04/10 13:52:49;;;;;;;14.85;14.05;;;;;;;;;;5044569;28;20028;-61
2023/04/10 13:55:15;;;;;;;15.63;14.73;;;;;;;;;;5053156;28;20021;-61
2023/04/10 13:57:40;;;;;;;14.02;13.32;;;;;;;;;;5053012;28;20021;-61
2023/04/10 14:00:06;;;;;;;15.02;14.23;;;;;;;;;;5052661;28;20049;-62
2023/04/10 14:02:32;;;;;;;14.52;13.73;;;;;;;;;;5048736;28;20092;-61
2023/04/10 14:04:58;;;;;;;13.93;13.23;;;;;;;;;;5048767;28;20028;-61
2023/04/10 14:07:23;;;;;;;13.90;13.20;;;;;;;;;;5051604;28;20059;-60
2023/04/10 14:09:48;;;;;;;15.52;14.63;;;;;;;;;;5052687;28;20029;-61
2023/04/10 14:12:18;;;;;;;15.68;14.77;;;;;;;;;;5049164;28;20021;-60
2023/04/10 14:14:43;;;;;;;15.00;14.20;;;;;;;;;;5057764;28;20040;-60